This is the latest recevied weather packets stored in our database for station/object DC1MAK-13. If no packets are shown the sender has not sent any weather packets the latest 10 day(s).
| Time | Temp. | Humidity | Pressure | Rain* | Wind** | Luminosity | Snow |
|---|---|---|---|---|---|---|---|
| 1788102878 | 26.11° C | 52% | 985.9 hPa | - | - | - | - |
| 1788102574 | 26.67° C | 51% | 986 hPa | - | - | - | - |
| 1788102271 | 26.11° C | 51% | 986 hPa | - | - | - | - |
| 1788101360 | 27.22° C | 48% | 986 hPa | - | - | - | - |
| 1788101057 | 27.22° C | 49% | 985.9 hPa | - | - | - | - |
| 1788100757 | 26.67° C | 49% | 986 hPa | - | - | - | - |
| 1788099847 | 26.11° C | 52% | 986.1 hPa | - | - | - | - |
| 1788099539 | 26.11° C | 52% | 986 hPa | - | - | - | - |
| 1788099236 | 26.11° C | 52% | 986 hPa | - | - | - | - |
| 1788098932 | 26.11° C | 48% | 986.1 hPa | - | - | - | - |
| 1788098327 | 26.67° C | 49% | 986.1 hPa | - | - | - | - |
| 1788098027 | 26.67° C | 49% | 986.1 hPa | - | - | - | - |
| 1788097719 | 26.67° C | 50% | 986.2 hPa | - | - | - | - |
| 1788097415 | 27.22° C | 50% | 986.2 hPa | - | - | - | - |
| 1788097112 | 26.67° C | 53% | 986.3 hPa | - | - | - | - |
| 1788096802 | 25.56° C | 54% | 986.3 hPa | - | - | - | - |
| 1788096507 | 25.56° C | 54% | 986.3 hPa | - | - | - | - |
| 1788096207 | 26.67° C | 52% | 986.3 hPa | - | - | - | - |
| 1788095898 | 26.11° C | 54% | 986.4 hPa | - | - | - | - |
| 1788095594 | 25° C | 55% | 986.5 hPa | - | - | - | - |
| 1788095291 | 24.44° C | 57% | 986.5 hPa | - | - | - | - |
| 1788094687 | 25° C | 53% | 986.4 hPa | - | - | - | - |
| 1788094381 | 25° C | 54% | 986.5 hPa | - | - | - | - |
| 1788094375 | 25° C | 54% | 986.5 hPa | - | - | - | - |
| 1788094077 | 25.56° C | 53% | 986.5 hPa | - | - | - | - |
* Rain since midnight (hover to see other rain measurements)
** Current wind speed in m/s (hover to see current wind gust speed)